Sieper, LA (71472)

4:53 PM CDT on August 03, 2015 (GMT -0500)
Gardner | | Change Station
CLOSE
Current Station
Personal Weather Station
Location: Gardner, LA
Elevation: 184 ft
Nearby Weather Stations

Elev 184 ft 31.27 °N, 92.68 °W | Updated 13 seconds ago

Clear
Clear
103.5 °F
Feels Like 114 °F
N
1.6
Wind Variable Wind from NW
Gusts 2.2 mph

Today
High -- | Low -- °F
--% Chance of Precip.
Yesterday
High -- | Low -- °F
Precip. -- in
6:29 AM 8:05 PM
Waning Gibbous, 84% visible
Pressure 29.94 in
Visibility 10.0 miles
Clouds Few 7500 ft
Heat Index 114 °F
Dew Point 71 °F
Humidity 36%
Rainfall 0.00 in
Snow Depth Not available.
UV 8 out of 12
Pollen 2.90 out of 12
Air Quality Not available.
Flu Activity Not available.
METAR KBKB 032054Z AUTO 00000KT 10SM FEW075 37/18 A2986 RMK AO2 SLP136 T03670178 58010

More Conditions Fewer Conditions

Pressure 29.94 in
Visibility 10.0 miles
Clouds Few 7500 ft
Heat Index 114 °F
Dew Point 71 °F
Humidity 36%
Rainfall 0.00 in
Snow Depth Not available.
UV 8 out of 12
Pollen 2.90 out of 12
Air Quality Not available.
Flu Activity Not available.
METAR KBKB 032054Z AUTO 00000KT 10SM FEW075 37/18 A2986 RMK AO2 SLP136 T03670178 58010

More Conditions Fewer Conditions

10-Day Weather Forecast

×

Almanac

Astronomy

Aug. 03, 2015 Rise Set
Actual Time
Civil Twilight
Nautical Twilight
Astronomical Twilight
Moon
Length of Visible Light
Length of Day
Tomorrow will be .
, % of the Moon is Illuminated

Today's Extremes

State Highs State Lows

Community

WunderPhotos

Upload Photos

1,843,770 photos uploaded!

WunderBlogs® & News

Nearby

Air Quality

  Air Quality AQ Index Pollutant
Not available.

Snow Depth

Station Depth Elevation

Earthquake Activity

City Distance Mag. Time & Date
Minimum magnitude displayed is 2.5.

Coastal Water Temperatures

Place Temperature

Stations

Nearby Weather Stations

Station Location Temp. Windchill Dew Point Humidity Wind Precip. Elev Updated Type